Terminal Aerodrome Forecast
Issued by NWS Sterling, VA

Current Version | Previous Version | Text Only | Print | Product List | Glossary Off
Versions: 1 2 3 4 5 6 7 8 9 10 11 12 13 14

819
FTUS41 KLWX 171724
TAFMRB
TAF
KMRB 171724Z 1718/1818 15005KT P6SM VCTS BKN040CB
     FM180300 00000KT P6SM SCT050 SCT250
     FM180900 00000KT 4SM BR SCT050 SCT250
     FM181200 00000KT P6SM BKN050=

USA.gov is the U.S. government's official web portal to all federal, state and local government web resources and services.